^^
Station Historical Data
Daily Summary for February 17, 2018 Units:  Both    English   Metric
« Previous Day
Next Day »
Daily Weekly Monthly Yearly Custom
  High: Low: Average:
Temperature: TemperatureF °F /  -17.8 °C 66.4 °F /  19.1 °C 75.7 °F /  24.3 °C
Dew Point: DewpointF °F /  -17.8 °C 29.1 °F /  -1.6 °C 34.4 °F /  1.3 °C
Humidity: Humidity% 18% 22%
Wind Speed: WindSpeedMPHmph /  0km/h - -10.8mph /  -17.4km/h
Wind Gust: WindSpeedGustMPHmph /  0km/h - -
Wind- -
Pressure: PressureIn in /  0 hPa 29.59 in /  1001.9 hPa -
Precipitation: 0.00 in /  0 mm    
Historical Graphs
 
 
Tabular Data for February 17, 2018
Time Temperature Dew Point Pressure Wind Wind Speed Wind Gust Humidity Rainfall Rate (Hourly) solar Conditions
TemperatureF °F /  -17.8 °C DewpointF °F /  -17.8 °C PressureInin /  0hPa Calm     Humidity% HourlyPrecipInin /  0mm SoftwareType W/m2 Conditions
08:18 66.4 °F /  19.1 °C 30.4 °F /  -0.9 °C 29.67in /  1004.6hPa North -999.9mph /  -1609.1km/h -999.0mph /  -1607.7km/h 26% 0.00in /  0mm meteobridge W/m2
08:24 66.6 °F /  19.2 °C 30.6 °F /  -0.8 °C 29.67in /  1004.6hPa South 4.0mph /  6.4km/h 11.0mph /  17.7km/h 26% 0.00in /  0mm meteobridge W/m2
08:30 66.9 °F /  19.4 °C 30.9 °F /  -0.6 °C 29.67in /  1004.6hPa SSE 4.0mph /  6.4km/h 12.0mph /  19.3km/h 26% 0.00in /  0mm meteobridge W/m2
08:36 67.3 °F /  19.6 °C 32.2 °F /  0.1 °C 29.67in /  1004.6hPa South 10.1mph /  16.3km/h 10.1mph /  16.3km/h 27% 0.00in /  0mm meteobridge W/m2
08:42 67.6 °F /  19.8 °C 31.5 °F /  -0.3 °C 29.67in /  1004.6hPa South 4.0mph /  6.4km/h 9.0mph /  14.5km/h 26% 0.00in /  0mm meteobridge W/m2
08:48 68.0 °F /  20 °C 31.8 °F /  -0.1 °C 29.68in /  1005hPa South 4.9mph /  7.9km/h 11.0mph /  17.7km/h 26% 0.00in /  0mm meteobridge W/m2
08:54 68.2 °F /  20.1 °C 32.0 °F /  0 °C 29.67in /  1004.6hPa South 11.0mph /  17.7km/h 12.0mph /  19.3km/h 26% 0.00in /  0mm meteobridge W/m2
09:00 68.5 °F /  20.3 °C 31.3 °F /  -0.4 °C 29.67in /  1004.6hPa South 4.0mph /  6.4km/h 11.0mph /  17.7km/h 25% 0.00in /  0mm meteobridge W/m2
09:06 68.9 °F /  20.5 °C 32.5 °F /  0.3 °C 29.67in /  1004.6hPa South 2.9mph /  4.7km/h 10.0mph /  16.1km/h 26% 0.00in /  0mm meteobridge W/m2
09:12 69.4 °F /  20.8 °C 33.1 °F /  0.6 °C 29.68in /  1005hPa SSE 2.9mph /  4.7km/h 11.0mph /  17.7km/h 26% 0.00in /  0mm meteobridge W/m2
09:19 70.0 °F /  21.1 °C 31.5 °F /  -0.3 °C 29.68in /  1005hPa South 10.1mph /  16.3km/h 11.0mph /  17.7km/h 24% 0.00in /  0mm meteobridge W/m2
09:24 70.0 °F /  21.1 °C 32.5 °F /  0.3 °C 29.67in /  1004.6hPa South 6.9mph /  11.1km/h 11.0mph /  17.7km/h 25% 0.00in /  0mm meteobridge W/m2
09:31 70.5 °F /  21.4 °C 32.0 °F /  0 °C 29.67in /  1004.6hPa SSW 10.1mph /  16.3km/h 11.0mph /  17.7km/h 24% 0.00in /  0mm meteobridge W/m2
09:37 70.9 °F /  21.6 °C 32.4 °F /  0.2 °C 29.67in /  1004.6hPa South 4.0mph /  6.4km/h 10.0mph /  16.1km/h 24% 0.00in /  0mm meteobridge W/m2
09:43 71.1 °F /  21.7 °C 31.5 °F /  -0.3 °C 29.67in /  1004.6hPa SSE 6.0mph /  9.7km/h 14.0mph /  22.5km/h 23% 0.00in /  0mm meteobridge W/m2
09:49 71.8 °F /  22.1 °C 33.1 °F /  0.6 °C 29.68in /  1005hPa South 6.0mph /  9.7km/h 13.0mph /  20.9km/h 24% 0.00in /  0mm meteobridge W/m2
09:55 72.0 °F /  22.2 °C 32.2 °F /  0.1 °C 29.68in /  1005hPa South 6.0mph /  9.7km/h 9.0mph /  14.5km/h 23% 0.00in /  0mm meteobridge W/m2
10:01 72.1 °F /  22.3 °C 32.4 °F /  0.2 °C 29.68in /  1005hPa SSW 6.0mph /  9.7km/h 12.0mph /  19.3km/h 23% 0.00in /  0mm meteobridge W/m2
10:07 72.5 °F /  22.5 °C 33.6 °F /  0.9 °C 29.68in /  1005hPa SSW 6.0mph /  9.7km/h 10.0mph /  16.1km/h 24% 0.00in /  0mm meteobridge W/m2
10:13 73.0 °F /  22.8 °C 32.0 °F /  0 °C 29.68in /  1005hPa South 4.0mph /  6.4km/h 11.0mph /  17.7km/h 22% 0.00in /  0mm meteobridge W/m2
10:19 73.2 °F /  22.9 °C 30.9 °F /  -0.6 °C 29.68in /  1005hPa SSE 10.1mph /  16.3km/h 11.0mph /  17.7km/h 21% 0.00in /  0mm meteobridge W/m2
10:26 73.6 °F /  23.1 °C 32.4 °F /  0.2 °C 29.69in /  1005.3hPa SSW 10.1mph /  16.3km/h 10.1mph /  16.3km/h 22% 0.00in /  0mm meteobridge W/m2
10:32 73.8 °F /  23.2 °C 32.5 °F /  0.3 °C 29.69in /  1005.3hPa SSE 6.0mph /  9.7km/h 9.0mph /  14.5km/h 22% 0.00in /  0mm meteobridge W/m2
10:38 73.9 °F /  23.3 °C 32.7 °F /  0.4 °C 29.69in /  1005.3hPa SSE 2.9mph /  4.7km/h 9.0mph /  14.5km/h 22% 0.00in /  0mm meteobridge W/m2
10:44 73.9 °F /  23.3 °C 30.4 °F /  -0.9 °C 29.69in /  1005.3hPa Calm   11.0mph /  17.7km/h 20% 0.00in /  0mm meteobridge W/m2
10:50 73.9 °F /  23.3 °C 29.1 °F /  -1.6 °C 29.68in /  1005hPa SSW 2.9mph /  4.7km/h 11.0mph /  17.7km/h 19% 0.00in /  0mm meteobridge W/m2
10:56 74.3 °F /  23.5 °C 30.6 °F /  -0.8 °C 29.67in /  1004.6hPa SSE 6.0mph /  9.7km/h 19.0mph /  30.6km/h 20% 0.00in /  0mm meteobridge W/m2
11:02 74.1 °F /  23.4 °C 30.6 °F /  -0.8 °C 29.68in /  1005hPa ESE 6.9mph /  11.1km/h 10.0mph /  16.1km/h 20% 0.00in /  0mm meteobridge W/m2
11:09 75.0 °F /  23.9 °C 32.4 °F /  0.2 °C 29.68in /  1005hPa NNE 2.0mph /  3.2km/h 19.0mph /  30.6km/h 21% 0.00in /  0mm meteobridge W/m2
11:15 74.7 °F /  23.7 °C 32.2 °F /  0.1 °C 29.68in /  1005hPa SSE 2.9mph /  4.7km/h 16.0mph /  25.7km/h 21% 0.00in /  0mm meteobridge W/m2
11:21 74.8 °F /  23.8 °C 33.4 °F /  0.8 °C 29.68in /  1005hPa SSE 12.1mph /  19.5km/h 16.0mph /  25.7km/h 22% 0.00in /  0mm meteobridge W/m2
11:27 75.0 °F /  23.9 °C 33.6 °F /  0.9 °C 29.68in /  1005hPa South 4.9mph /  7.9km/h 19.0mph /  30.6km/h 22% 0.00in /  0mm meteobridge W/m2
11:33 75.6 °F /  24.2 °C 32.9 °F /  0.5 °C 29.68in /  1005hPa SW 6.0mph /  9.7km/h 13.0mph /  20.9km/h 21% 0.00in /  0mm meteobridge W/m2
11:39 75.7 °F /  24.3 °C 33.1 °F /  0.6 °C 29.68in /  1005hPa South 6.9mph /  11.1km/h 14.0mph /  22.5km/h 21% 0.00in /  0mm meteobridge W/m2
11:45 75.7 °F /  24.3 °C 33.1 °F /  0.6 °C 29.68in /  1005hPa SSW 6.9mph /  11.1km/h 13.0mph /  20.9km/h 21% 0.00in /  0mm meteobridge W/m2
11:51 75.0 °F /  23.9 °C 32.4 °F /  0.2 °C 29.67in /  1004.6hPa SSE 8.9mph /  14.3km/h 20.0mph /  32.2km/h 21% 0.00in /  0mm meteobridge W/m2
11:57 76.3 °F /  24.6 °C 36.9 °F /  2.7 °C 29.67in /  1004.6hPa South 4.0mph /  6.4km/h 12.0mph /  19.3km/h 24% 0.00in /  0mm meteobridge W/m2
12:03 76.5 °F /  24.7 °C 33.6 °F /  0.9 °C 29.68in /  1005hPa SSW 2.0mph /  3.2km/h 17.0mph /  27.4km/h 21% 0.00in /  0mm meteobridge W/m2
12:09 76.5 °F /  24.7 °C 34.9 °F /  1.6 °C 29.68in /  1005hPa South 2.0mph /  3.2km/h 16.0mph /  25.7km/h 22% 0.00in /  0mm meteobridge W/m2
12:15 76.5 °F /  24.7 °C 34.9 °F /  1.6 °C 29.67in /  1004.6hPa East 11.0mph /  17.7km/h 15.0mph /  24.1km/h 22% 0.00in /  0mm meteobridge W/m2
12:21 76.6 °F /  24.8 °C 37.2 °F /  2.9 °C 29.67in /  1004.6hPa South 10.1mph /  16.3km/h 14.0mph /  22.5km/h 24% 0.00in /  0mm meteobridge W/m2
12:27 77.7 °F /  25.4 °C 37.0 °F /  2.8 °C 29.67in /  1004.6hPa South 15.0mph /  24.1km/h 15.0mph /  24.1km/h 23% 0.00in /  0mm meteobridge W/m2
12:34 78.3 °F /  25.7 °C 36.3 °F /  2.4 °C 29.67in /  1004.6hPa SSE 4.9mph /  7.9km/h 11.0mph /  17.7km/h 22% 0.00in /  0mm meteobridge W/m2
12:40 77.7 °F /  25.4 °C 35.8 °F /  2.1 °C 29.67in /  1004.6hPa South 8.9mph /  14.3km/h 17.0mph /  27.4km/h 22% 0.00in /  0mm meteobridge W/m2
12:46 77.7 °F /  25.4 °C 35.8 °F /  2.1 °C 29.66in /  1004.3hPa SSW 8.1mph /  13km/h 14.0mph /  22.5km/h 22% 0.00in /  0mm meteobridge W/m2
12:52 78.6 °F /  25.9 °C 36.7 °F /  2.6 °C 29.66in /  1004.3hPa ENE 6.0mph /  9.7km/h 15.0mph /  24.1km/h 22% 0.00in /  0mm meteobridge W/m2
12:58 79.0 °F /  26.1 °C 37.9 °F /  3.3 °C 29.66in /  1004.3hPa ESE 4.9mph /  7.9km/h 12.0mph /  19.3km/h 23% 0.00in /  0mm meteobridge W/m2
13:04 78.3 °F /  25.7 °C 37.4 °F /  3 °C 29.66in /  1004.3hPa SSW 4.0mph /  6.4km/h 12.0mph /  19.3km/h 23% 0.00in /  0mm meteobridge W/m2
13:10 79.0 °F /  26.1 °C 37.9 °F /  3.3 °C 29.66in /  1004.3hPa SSW 10.1mph /  16.3km/h 19.0mph /  30.6km/h 23% 0.00in /  0mm meteobridge W/m2
13:16 77.5 °F /  25.3 °C 35.8 °F /  2.1 °C 29.66in /  1004.3hPa SE 21.0mph /  33.8km/h 27.0mph /  43.5km/h 22% 0.00in /  0mm meteobridge W/m2
13:22 77.5 °F /  25.3 °C 36.9 °F /  2.7 °C 29.65in /  1003.9hPa SE 15.0mph /  24.1km/h 18.0mph /  29km/h 23% 0.00in /  0mm meteobridge W/m2
13:28 78.4 °F /  25.8 °C 37.6 °F /  3.1 °C 29.65in /  1003.9hPa South 8.9mph /  14.3km/h 12.0mph /  19.3km/h 23% 0.00in /  0mm meteobridge W/m2
13:34 78.6 °F /  25.9 °C 36.7 °F /  2.6 °C 29.64in /  1003.6hPa ESE 8.9mph /  14.3km/h 16.0mph /  25.7km/h 22% 0.00in /  0mm meteobridge W/m2
13:40 78.6 °F /  25.9 °C 37.8 °F /  3.2 °C 29.64in /  1003.6hPa South 0.9mph /  1.4km/h 5.0mph /  8km/h 23% 0.00in /  0mm meteobridge W/m2
13:46 79.0 °F /  26.1 °C 39.2 °F /  4 °C 29.64in /  1003.6hPa SSW 14.1mph /  22.7km/h 22.0mph /  35.4km/h 24% 0.00in /  0mm meteobridge W/m2
13:52 78.3 °F /  25.7 °C 38.5 °F /  3.6 °C 29.64in /  1003.6hPa SSW 6.0mph /  9.7km/h 18.0mph /  29km/h 24% 0.00in /  0mm meteobridge W/m2
13:59 79.2 °F /  26.2 °C 39.2 °F /  4 °C 29.63in /  1003.3hPa South 13.0mph /  20.9km/h 17.0mph /  27.4km/h 24% 0.00in /  0mm meteobridge W/m2
14:04 79.2 °F /  26.2 °C 39.2 °F /  4 °C 29.64in /  1003.6hPa SSW 17.0mph /  27.4km/h 21.0mph /  33.8km/h 24% 0.00in /  0mm meteobridge W/m2
14:11 78.3 °F /  25.7 °C 37.4 °F /  3 °C 29.62in /  1002.9hPa SE 14.1mph /  22.7km/h 16.0mph /  25.7km/h 23% 0.00in /  0mm meteobridge W/m2
14:17 79.0 °F /  26.1 °C 37.9 °F /  3.3 °C 29.63in /  1003.3hPa SSW 8.9mph /  14.3km/h 18.0mph /  29km/h 23% 0.00in /  0mm meteobridge W/m2
14:23 79.3 °F /  26.3 °C 38.3 °F /  3.5 °C 29.63in /  1003.3hPa SSE 8.9mph /  14.3km/h 15.0mph /  24.1km/h 23% 0.00in /  0mm meteobridge W/m2
14:29 79.2 °F /  26.2 °C 38.1 °F /  3.4 °C 29.62in /  1002.9hPa South 12.1mph /  19.5km/h 15.0mph /  24.1km/h 23% 0.00in /  0mm meteobridge W/m2
14:35 79.0 °F /  26.1 °C 41.2 °F /  5.1 °C 29.62in /  1002.9hPa SE 14.1mph /  22.7km/h 14.1mph /  22.7km/h 26% 0.00in /  0mm meteobridge W/m2
14:41 79.3 °F /  26.3 °C 39.4 °F /  4.1 °C 29.62in /  1002.9hPa SE 11.0mph /  17.7km/h 13.0mph /  20.9km/h 24% 0.00in /  0mm meteobridge W/m2
14:47 79.3 °F /  26.3 °C 38.3 °F /  3.5 °C 29.62in /  1002.9hPa South 13.0mph /  20.9km/h 14.0mph /  22.5km/h 23% 0.00in /  0mm meteobridge W/m2
14:53 79.0 °F /  26.1 °C 36.9 °F /  2.7 °C 29.62in /  1002.9hPa South 4.9mph /  7.9km/h 17.0mph /  27.4km/h 22% 0.00in /  0mm meteobridge W/m2
14:59 79.7 °F /  26.5 °C 37.6 °F /  3.1 °C 29.62in /  1002.9hPa SSE 6.9mph /  11.1km/h 19.0mph /  30.6km/h 22% 0.00in /  0mm meteobridge W/m2
15:05 80.2 °F /  26.8 °C 39.0 °F /  3.9 °C 29.62in /  1002.9hPa SSE 4.9mph /  7.9km/h 14.0mph /  22.5km/h 23% 0.00in /  0mm meteobridge W/m2
15:11 79.2 °F /  26.2 °C 35.8 °F /  2.1 °C 29.61in /  1002.6hPa SSW 10.1mph /  16.3km/h 14.0mph /  22.5km/h 21% 0.00in /  0mm meteobridge W/m2
15:17 79.0 °F /  26.1 °C 35.8 °F /  2.1 °C 29.61in /  1002.6hPa SSE 2.0mph /  3.2km/h 11.0mph /  17.7km/h 21% 0.00in /  0mm meteobridge W/m2
15:23 79.3 °F /  26.3 °C 34.7 °F /  1.5 °C 29.62in /  1002.9hPa South 11.0mph /  17.7km/h 23.0mph /  37km/h 20% 0.00in /  0mm meteobridge W/m2
15:29 79.0 °F /  26.1 °C 35.8 °F /  2.1 °C 29.61in /  1002.6hPa SSE 13.0mph /  20.9km/h 13.0mph /  20.9km/h 21% 0.00in /  0mm meteobridge W/m2
15:35 79.5 °F /  26.4 °C 34.9 °F /  1.6 °C 29.61in /  1002.6hPa SE 11.0mph /  17.7km/h 18.0mph /  29km/h 20% 0.00in /  0mm meteobridge W/m2
15:42 78.8 °F /  26 °C 33.1 °F /  0.6 °C 29.60in /  1002.3hPa SSE 17.9mph /  28.8km/h 19.0mph /  30.6km/h 19% 0.00in /  0mm meteobridge W/m2
15:48 79.2 °F /  26.2 °C 34.7 °F /  1.5 °C 29.61in /  1002.6hPa SSE 6.0mph /  9.7km/h 18.0mph /  29km/h 20% 0.00in /  0mm meteobridge W/m2
15:54 78.8 °F /  26 °C 33.1 °F /  0.6 °C 29.61in /  1002.6hPa SE 6.0mph /  9.7km/h 12.0mph /  19.3km/h 19% 0.00in /  0mm meteobridge W/m2
16:00 79.3 °F /  26.3 °C 34.7 °F /  1.5 °C 29.61in /  1002.6hPa NW 6.9mph /  11.1km/h 23.0mph /  37km/h 20% 0.00in /  0mm meteobridge W/m2
16:06 79.9 °F /  26.6 °C 35.2 °F /  1.8 °C 29.60in /  1002.3hPa SSW 8.1mph /  13km/h 13.0mph /  20.9km/h 20% 0.00in /  0mm meteobridge W/m2
16:12 79.7 °F /  26.5 °C 35.1 °F /  1.7 °C 29.60in /  1002.3hPa SE 4.0mph /  6.4km/h 7.0mph /  11.3km/h 20% 0.00in /  0mm meteobridge W/m2
16:18 80.2 °F /  26.8 °C 36.7 °F /  2.6 °C 29.60in /  1002.3hPa South 0.9mph /  1.4km/h 6.0mph /  9.7km/h 21% 0.00in /  0mm meteobridge W/m2
16:24 81.3 °F /  27.4 °C 35.1 °F /  1.7 °C 29.60in /  1002.3hPa South 0.9mph /  1.4km/h 9.0mph /  14.5km/h 19% 0.00in /  0mm meteobridge W/m2
16:31 80.4 °F /  26.9 °C 34.3 °F /  1.3 °C 29.60in /  1002.3hPa SSW 12.1mph /  19.5km/h 13.0mph /  20.9km/h 19% 0.00in /  0mm meteobridge W/m2
16:37 79.7 °F /  26.5 °C 35.1 °F /  1.7 °C 29.59in /  1001.9hPa South 12.1mph /  19.5km/h 12.1mph /  19.5km/h 20% 0.00in /  0mm meteobridge W/m2
16:43 79.9 °F /  26.6 °C 35.2 °F /  1.8 °C 29.60in /  1002.3hPa South 4.9mph /  7.9km/h 11.0mph /  17.7km/h 20% 0.00in /  0mm meteobridge W/m2
16:49 80.4 °F /  26.9 °C 34.3 °F /  1.3 °C 29.59in /  1001.9hPa South 4.0mph /  6.4km/h 6.0mph /  9.7km/h 19% 0.00in /  0mm meteobridge W/m2
16:55 81.0 °F /  27.2 °C 36.1 °F /  2.3 °C 29.59in /  1001.9hPa South 6.9mph /  11.1km/h 11.0mph /  17.7km/h 20% 0.00in /  0mm meteobridge W/m2
17:01 80.1 °F /  26.7 °C 34.2 °F /  1.2 °C 29.60in /  1002.3hPa South 8.9mph /  14.3km/h 14.0mph /  22.5km/h 19% 0.00in /  0mm meteobridge W/m2
17:07 80.1 °F /  26.7 °C 36.7 °F /  2.6 °C 29.59in /  1001.9hPa South 4.9mph /  7.9km/h 5.0mph /  8km/h 21% 0.00in /  0mm meteobridge W/m2
17:14 80.2 °F /  26.8 °C 34.2 °F /  1.2 °C 29.59in /  1001.9hPa South 4.0mph /  6.4km/h 9.0mph /  14.5km/h 19% 0.00in /  0mm meteobridge W/m2
17:20 79.7 °F /  26.5 °C 33.8 °F /  1 °C 29.59in /  1001.9hPa South 6.9mph /  11.1km/h 13.0mph /  20.9km/h 19% 0.00in /  0mm meteobridge W/m2
17:26 79.3 °F /  26.3 °C 33.4 °F /  0.8 °C 29.59in /  1001.9hPa SSE 2.9mph /  4.7km/h 7.0mph /  11.3km/h 19% 0.00in /  0mm meteobridge W/m2
17:32 80.1 °F /  26.7 °C 35.4 °F /  1.9 °C 29.59in /  1001.9hPa SSE 4.0mph /  6.4km/h 6.0mph /  9.7km/h 20% 0.00in /  0mm meteobridge W/m2
17:38 80.1 °F /  26.7 °C 34.2 °F /  1.2 °C 29.59in /  1001.9hPa SSE 6.0mph /  9.7km/h 8.0mph /  12.9km/h 19% 0.00in /  0mm meteobridge W/m2
17:44 79.5 °F /  26.4 °C 32.4 °F /  0.2 °C 29.59in /  1001.9hPa South 6.0mph /  9.7km/h 10.0mph /  16.1km/h 18% 0.00in /  0mm meteobridge W/m2
17:50 79.0 °F /  26.1 °C 34.5 °F /  1.4 °C 29.59in /  1001.9hPa South 6.0mph /  9.7km/h 13.0mph /  20.9km/h 20% 0.00in /  0mm meteobridge W/m2
17:56 79.5 °F /  26.4 °C 33.6 °F /  0.9 °C 29.59in /  1001.9hPa SSW 8.1mph /  13km/h 8.1mph /  13km/h 19% 0.00in /  0mm meteobridge W/m2
18:02 79.5 °F /  26.4 °C 34.9 °F /  1.6 °C 29.60in /  1002.3hPa SSE 2.0mph /  3.2km/h 14.0mph /  22.5km/h 20% 0.00in /  0mm meteobridge W/m2
18:08 79.3 °F /  26.3 °C 36.0 °F /  2.2 °C 29.60in /  1002.3hPa South 8.1mph /  13km/h 12.0mph /  19.3km/h 21% 0.00in /  0mm meteobridge W/m2
18:15 78.6 °F /  25.9 °C 35.4 °F /  1.9 °C 29.60in /  1002.3hPa South 6.9mph /  11.1km/h 9.0mph /  14.5km/h 21% 0.00in /  0mm meteobridge W/m2
18:21 78.6 °F /  25.9 °C 35.4 °F /  1.9 °C 29.60in /  1002.3hPa SSE 10.1mph /  16.3km/h 13.0mph /  20.9km/h 21% 0.00in /  0mm meteobridge W/m2
18:27 78.1 °F /  25.6 °C 36.1 °F /  2.3 °C 29.60in /  1002.3hPa SSE 6.9mph /  11.1km/h 9.0mph /  14.5km/h 22% 0.00in /  0mm meteobridge W/m2
18:33 78.1 °F /  25.6 °C 36.1 °F /  2.3 °C 29.61in /  1002.6hPa SSE 2.0mph /  3.2km/h 10.0mph /  16.1km/h 22% 0.00in /  0mm meteobridge W/m2
18:39 77.9 °F /  25.5 °C 34.9 °F /  1.6 °C 29.61in /  1002.6hPa South 6.0mph /  9.7km/h 8.0mph /  12.9km/h 21% 0.00in /  0mm meteobridge W/m2
18:45 77.5 °F /  25.3 °C 35.8 °F /  2.1 °C 29.61in /  1002.6hPa South 4.9mph /  7.9km/h 6.0mph /  9.7km/h 22% 0.00in /  0mm meteobridge W/m2
18:51 77.0 °F /  25 °C 35.2 °F /  1.8 °C 29.61in /  1002.6hPa South 4.0mph /  6.4km/h 11.0mph /  17.7km/h 22% 0.00in /  0mm meteobridge W/m2
18:57 76.5 °F /  24.7 °C 34.9 °F /  1.6 °C 29.61in /  1002.6hPa SSE 6.0mph /  9.7km/h 7.0mph /  11.3km/h 22% 0.00in /  0mm meteobridge W/m2
19:04 76.1 °F /  24.5 °C 34.5 °F /  1.4 °C 29.61in /  1002.6hPa SSW 2.9mph /  4.7km/h 10.0mph /  16.1km/h 22% 0.00in /  0mm meteobridge W/m2
19:10 75.7 °F /  24.3 °C 36.3 °F /  2.4 °C 29.61in /  1002.6hPa SSE 4.0mph /  6.4km/h 6.0mph /  9.7km/h 24% 0.00in /  0mm meteobridge W/m2
19:16 74.7 °F /  23.7 °C 35.4 °F /  1.9 °C 29.61in /  1002.6hPa South 4.0mph /  6.4km/h 6.0mph /  9.7km/h 24% 0.00in /  0mm meteobridge W/m2
19:22 74.1 °F /  23.4 °C 35.1 °F /  1.7 °C 29.62in /  1002.9hPa South 4.9mph /  7.9km/h 5.0mph /  8km/h 24% 0.00in /  0mm meteobridge W/m2
19:29 74.1 °F /  23.4 °C 35.1 °F /  1.7 °C 29.62in /  1002.9hPa South 4.9mph /  7.9km/h -999.0mph /  -1607.7km/h 24% 0.00in /  0mm meteobridge W/m2
19:36 74.1 °F /  23.4 °C 35.1 °F /  1.7 °C 29.62in /  1002.9hPa North -999.9mph /  -1609.1km/h -999.0mph /  -1607.7km/h 24% 0.00in /  0mm meteobridge W/m2
Regenstein, Windhoek, Namibia
Compliments of Weather Underground - 2.5 mb